createdAt,value
2018-10-06T00:00:56.173Z,7.73
2018-10-06T00:03:01.741Z,15.53
2018-10-06T00:05:08.508Z,8.83
2018-10-06T00:07:19.750Z,11.73
2018-10-06T00:09:25.370Z,10.97
2018-10-06T00:11:30.850Z,16.03
2018-10-06T00:13:38.862Z,15.97
2018-10-06T00:15:44.472Z,13.20
2018-10-06T00:17:49.964Z,13.67
2018-10-06T00:19:55.731Z,15.00
2018-10-06T00:22:01.473Z,18.73
2018-10-06T00:24:06.708Z,12.53
2018-10-06T00:26:12.552Z,12.33
2018-10-06T00:28:18.422Z,10.70
2018-10-06T00:30:23.827Z,13.13
2018-10-06T00:32:29.776Z,11.07
2018-10-06T00:34:35.629Z,14.40
2018-10-06T00:36:41.478Z,12.57
2018-10-06T00:38:46.944Z,11.27
2018-10-06T00:40:52.972Z,12.27
2018-10-06T00:42:58.709Z,12.30
2018-10-06T00:45:04.438Z,10.63
2018-10-06T00:47:10.087Z,8.50
2018-10-06T00:49:15.537Z,9.90
2018-10-06T00:51:21.144Z,10.43
2018-10-06T00:53:27.027Z,11.10
2018-10-06T00:55:32.663Z,11.43
2018-10-06T00:57:38.381Z,11.87
2018-10-06T00:59:44.356Z,8.77
2018-10-06T01:01:49.545Z,10.57
2018-10-06T01:03:55.014Z,11.70
2018-10-06T01:06:01.292Z,13.70
2018-10-06T01:08:06.939Z,9.07
2018-10-06T01:10:12.664Z,10.00
2018-10-06T01:12:18.654Z,14.10
2018-10-06T01:14:25.328Z,11.47
2018-10-06T01:16:31.008Z,8.60
2018-10-06T01:18:36.497Z,9.37
2018-10-06T01:20:44.486Z,9.50
2018-10-06T01:22:50.172Z,8.87
2018-10-06T01:24:56.607Z,9.30
2018-10-06T01:27:02.952Z,10.93
2018-10-06T01:29:08.819Z,9.47
2018-10-06T01:31:15.231Z,12.00
2018-10-06T01:33:21.497Z,9.50
2018-10-06T01:35:27.661Z,6.43
2018-10-06T01:37:34.061Z,9.90
2018-10-06T01:39:41.641Z,6.70
2018-10-06T01:41:47.216Z,7.93
2018-10-06T01:43:53.104Z,8.00
2018-10-06T01:45:58.943Z,5.67
2018-10-06T01:48:05.238Z,5.90
2018-10-06T01:50:10.348Z,7.50
2018-10-06T01:52:15.626Z,6.00
2018-10-06T01:54:21.093Z,7.40
2018-10-06T01:56:27.146Z,5.50
2018-10-06T01:58:32.778Z,4.87
2018-10-06T02:00:38.444Z,7.20
2018-10-06T02:02:44.282Z,5.37
2018-10-06T02:04:49.645Z,5.03
2018-10-06T02:06:55.169Z,4.80
2018-10-06T02:09:01.240Z,8.63
2018-10-06T02:11:07.328Z,5.13
2018-10-06T02:13:12.593Z,5.77
2018-10-06T02:15:18.520Z,7.60
2018-10-06T02:17:24.760Z,4.50
2018-10-06T02:19:30.455Z,4.70
2018-10-06T02:21:40.207Z,4.20
2018-10-06T02:23:46.496Z,4.93
2018-10-06T02:25:52.929Z,4.70
2018-10-06T02:27:59.389Z,4.90
2018-10-06T02:30:05.596Z,8.67
2018-10-06T02:32:11.204Z,3.80
2018-10-06T02:34:17.238Z,4.20
2018-10-06T02:36:22.703Z,7.07
2018-10-06T02:38:29.527Z,4.00
2018-10-06T02:40:34.764Z,5.67
2018-10-06T02:42:40.409Z,5.20
2018-10-06T02:44:46.272Z,4.57
2018-10-06T02:46:51.917Z,5.57
2018-10-06T02:48:58.037Z,3.63
2018-10-06T02:51:03.384Z,4.47
2018-10-06T02:53:08.789Z,4.60
2018-10-06T02:55:14.510Z,3.43
2018-10-06T02:57:20.421Z,4.33
2018-10-06T02:59:25.783Z,4.47
2018-10-06T03:01:31.536Z,4.43
2018-10-06T03:03:37.103Z,4.27
2018-10-06T03:07:55.678Z,3.87
2018-10-06T03:10:01.577Z,3.60
2018-10-06T03:12:07.650Z,4.50
2018-10-06T03:14:13.596Z,3.30
2018-10-06T03:16:19.100Z,3.17
2018-10-06T03:18:24.448Z,3.83
2018-10-06T03:20:30.976Z,3.63
2018-10-06T03:22:36.797Z,3.23
2018-10-06T03:24:42.242Z,7.00
2018-10-06T03:26:47.825Z,3.73
2018-10-06T03:28:53.050Z,3.83
2018-10-06T03:30:58.932Z,3.57
2018-10-06T03:33:04.539Z,3.03
2018-10-06T03:35:10.393Z,4.00
2018-10-06T03:37:16.437Z,3.60
2018-10-06T03:39:22.132Z,3.27
2018-10-06T03:41:28.262Z,5.63
2018-10-06T03:43:33.791Z,2.60
2018-10-06T03:45:39.332Z,5.87
2018-10-06T03:47:45.791Z,2.97
2018-10-06T03:49:51.737Z,2.60
2018-10-06T03:51:57.508Z,3.53
2018-10-06T03:54:02.832Z,5.27
2018-10-06T03:56:08.583Z,3.10
2018-10-06T03:58:14.502Z,3.50
2018-10-06T04:00:20.284Z,3.23
2018-10-06T04:02:26.018Z,4.47
2018-10-06T04:04:31.736Z,2.40
2018-10-06T04:06:36.945Z,2.90
2018-10-06T04:08:42.680Z,2.50
2018-10-06T04:10:48.538Z,2.67
2018-10-06T04:12:54.232Z,3.80
2018-10-06T04:14:59.681Z,4.90
2018-10-06T04:17:05.503Z,5.80
2018-10-06T04:19:11.492Z,2.87
2018-10-06T04:21:16.930Z,3.40
2018-10-06T04:23:22.406Z,3.43
2018-10-06T04:25:27.984Z,3.00
2018-10-06T04:27:34.387Z,3.07
2018-10-06T04:29:40.617Z,3.33
2018-10-06T04:31:45.981Z,2.57
2018-10-06T04:33:51.841Z,4.47
2018-10-06T04:35:57.565Z,3.17
2018-10-06T04:38:02.961Z,2.60
2018-10-06T04:40:08.489Z,3.00
2018-10-06T04:42:14.092Z,3.60
2018-10-06T04:44:19.480Z,2.30
2018-10-06T04:46:24.911Z,2.83
2018-10-06T04:48:30.031Z,2.10
2018-10-06T04:50:35.499Z,2.50
2018-10-06T04:52:40.856Z,3.23
2018-10-06T04:54:46.176Z,2.60
2018-10-06T04:56:51.731Z,3.63
2018-10-06T04:58:57.125Z,3.97
2018-10-06T05:01:02.889Z,2.60
2018-10-06T05:03:08.049Z,2.80
2018-10-06T05:05:14.014Z,2.60
2018-10-06T05:07:19.594Z,2.37
2018-10-06T05:09:24.939Z,4.47
2018-10-06T05:11:30.832Z,4.40
2018-10-06T05:13:36.334Z,2.80
2018-10-06T05:15:41.796Z,2.90
2018-10-06T05:17:48.994Z,5.70
2018-10-06T05:19:54.527Z,2.70
2018-10-06T05:22:00.472Z,2.53
2018-10-06T05:24:05.955Z,3.60
2018-10-06T05:26:11.582Z,2.27
2018-10-06T05:28:17.252Z,2.83
2018-10-06T05:30:22.540Z,3.10
2018-10-06T05:32:28.004Z,2.50
2018-10-06T05:34:33.451Z,3.23
2018-10-06T05:36:39.213Z,4.13
2018-10-06T05:38:44.727Z,3.13
2018-10-06T05:40:50.239Z,4.00
2018-10-06T05:42:55.714Z,3.33
2018-10-06T05:45:01.243Z,2.80
2018-10-06T05:47:06.954Z,3.60
2018-10-06T05:49:12.819Z,3.67
2018-10-06T05:51:18.008Z,3.47
2018-10-06T05:53:23.388Z,5.60
2018-10-06T05:55:28.676Z,3.60
2018-10-06T05:57:34.051Z,6.20
2018-10-06T05:59:39.202Z,3.30
2018-10-06T06:01:44.707Z,3.90
2018-10-06T06:03:50.109Z,5.03
2018-10-06T06:05:55.386Z,3.20
2018-10-06T06:08:00.871Z,3.97
2018-10-06T06:10:06.444Z,4.80
2018-10-06T06:12:11.935Z,3.90
2018-10-06T06:14:17.508Z,4.87
2018-10-06T06:16:23.052Z,4.37
2018-10-06T06:18:28.410Z,4.60
2018-10-06T06:20:34.155Z,4.17
2018-10-06T06:22:39.790Z,3.80
2018-10-06T06:24:45.407Z,4.10
2018-10-06T06:26:50.844Z,3.80
2018-10-06T06:28:56.336Z,3.90
2018-10-06T06:31:01.861Z,4.80
2018-10-06T06:33:07.395Z,4.57
2018-10-06T06:35:13.137Z,4.30
2018-10-06T06:37:18.846Z,4.13
2018-10-06T06:39:24.239Z,4.67
2018-10-06T06:41:29.799Z,7.10
2018-10-06T06:43:35.426Z,4.70
2018-10-06T06:45:41.168Z,5.50
2018-10-06T06:47:46.894Z,3.93
2018-10-06T06:49:52.355Z,5.17
2018-10-06T06:51:58.287Z,4.87
2018-10-06T06:54:03.703Z,4.73
2018-10-06T06:56:09.195Z,5.43
2018-10-06T06:58:14.436Z,4.20
2018-10-06T07:00:20.414Z,4.43
2018-10-06T07:02:26.540Z,6.50
2018-10-06T07:04:31.988Z,4.80
2018-10-06T07:06:37.403Z,5.00
2018-10-06T07:08:43.073Z,5.70
2018-10-06T07:10:48.341Z,5.07
2018-10-06T07:12:53.624Z,6.43
2018-10-06T07:14:59.129Z,5.10
2018-10-06T07:17:05.051Z,5.07
2018-10-06T07:19:10.954Z,5.77
2018-10-06T07:21:16.460Z,6.67
2018-10-06T07:23:22.800Z,5.77
2018-10-06T07:25:28.027Z,5.47
2018-10-06T07:27:33.725Z,5.67
2018-10-06T07:29:38.642Z,4.57
2018-10-06T07:31:43.735Z,6.20
2018-10-06T07:33:49.158Z,5.17
2018-10-06T07:35:54.629Z,5.30
2018-10-06T07:37:59.825Z,4.83
2018-10-06T07:40:05.308Z,8.67
2018-10-06T07:42:10.826Z,4.97
2018-10-06T07:44:16.196Z,5.97
2018-10-06T07:46:21.745Z,6.23
2018-10-06T07:48:27.758Z,7.20
2018-10-06T07:50:33.409Z,7.13
2018-10-06T07:52:38.772Z,6.03
2018-10-06T07:54:44.307Z,9.20
2018-10-06T07:56:49.653Z,7.83
2018-10-06T07:58:55.171Z,8.87
2018-10-06T08:01:00.279Z,6.97
2018-10-06T08:03:06.121Z,10.03
2018-10-06T08:05:11.651Z,6.97
2018-10-06T08:07:17.273Z,6.60
2018-10-06T08:09:22.849Z,6.20
2018-10-06T08:11:28.079Z,6.30
2018-10-06T08:13:33.776Z,6.70
2018-10-06T08:15:39.436Z,6.43
2018-10-06T08:17:44.914Z,5.90
2018-10-06T08:19:50.615Z,6.73
2018-10-06T08:21:55.942Z,6.47
2018-10-06T08:24:01.417Z,6.47
2018-10-06T08:26:07.508Z,6.10
2018-10-06T08:28:12.963Z,7.03
2018-10-06T08:30:18.490Z,6.60
2018-10-06T08:32:24.060Z,8.83
2018-10-06T08:34:29.890Z,5.60
2018-10-06T08:36:35.175Z,5.77
2018-10-06T08:38:40.580Z,5.90
2018-10-06T08:40:45.676Z,6.87
2018-10-06T08:42:50.902Z,5.83
2018-10-06T08:44:56.109Z,7.53
2018-10-06T08:47:01.293Z,5.87
2018-10-06T08:49:06.475Z,5.40
2018-10-06T08:51:11.746Z,5.47
2018-10-06T08:53:17.184Z,6.57
2018-10-06T08:55:22.758Z,6.40
2018-10-06T08:57:30.300Z,5.80
2018-10-06T08:59:36.068Z,5.50
2018-10-06T09:01:41.460Z,7.60
2018-10-06T09:03:46.903Z,5.93
2018-10-06T09:05:51.976Z,6.27
2018-10-06T09:07:57.166Z,6.93
2018-10-06T09:10:02.418Z,6.70
2018-10-06T09:12:07.686Z,7.43
2018-10-06T09:14:12.869Z,7.27
2018-10-06T09:16:18.333Z,5.90
2018-10-06T09:18:23.061Z,5.53
2018-10-06T09:20:28.052Z,6.87
2018-10-06T09:22:32.974Z,5.73
2018-10-06T09:24:37.752Z,6.17
2018-10-06T09:26:42.623Z,5.50
2018-10-06T09:28:47.706Z,5.50
2018-10-06T09:30:52.706Z,5.60
2018-10-06T09:32:57.997Z,6.07
2018-10-06T09:35:03.038Z,6.87
2018-10-06T09:37:07.722Z,7.30
2018-10-06T09:39:13.063Z,6.10
2018-10-06T09:41:17.938Z,6.20
2018-10-06T09:43:22.625Z,6.13
2018-10-06T09:45:27.523Z,7.80
2018-10-06T09:47:32.647Z,5.80
2018-10-06T09:49:37.812Z,6.37
2018-10-06T09:51:42.756Z,5.53
2018-10-06T09:53:47.816Z,8.43
2018-10-06T09:55:53.040Z,7.30
2018-10-06T09:57:57.908Z,8.07
2018-10-06T10:00:02.792Z,6.50
2018-10-06T10:02:16.745Z,6.47
2018-10-06T10:04:21.980Z,5.73
2018-10-06T10:06:26.798Z,9.87
2018-10-06T10:08:31.916Z,7.27
2018-10-06T10:10:37.030Z,5.97
2018-10-06T10:12:41.880Z,5.83
2018-10-06T10:14:47.122Z,6.00
2018-10-06T10:16:52.111Z,6.43
2018-10-06T10:18:57.353Z,6.10
2018-10-06T10:21:02.546Z,7.97
2018-10-06T10:23:07.311Z,6.63
2018-10-06T10:25:12.361Z,8.37
2018-10-06T10:27:17.275Z,12.10
2018-10-06T10:29:22.521Z,9.30
2018-10-06T10:31:27.875Z,8.50
2018-10-06T10:33:33.112Z,8.90
2018-10-06T10:35:38.007Z,7.50
2018-10-06T10:37:42.864Z,7.47
2018-10-06T10:39:47.977Z,9.30
2018-10-06T10:41:52.882Z,7.57
2018-10-06T10:43:59.332Z,10.63
2018-10-06T10:46:04.530Z,8.03
2018-10-06T10:48:09.765Z,8.67
2018-10-06T10:50:14.804Z,7.40
2018-10-06T10:52:21.221Z,7.87
2018-10-06T10:54:27.928Z,8.63
2018-10-06T10:56:33.006Z,7.93
2018-10-06T10:58:37.826Z,10.57
2018-10-06T11:00:42.591Z,13.67
2018-10-06T11:02:47.874Z,22.43
2018-10-06T11:04:52.866Z,16.60
2018-10-06T11:06:57.712Z,25.90
2018-10-06T11:09:03.919Z,21.37
2018-10-06T11:11:09.007Z,21.97
2018-10-06T11:13:14.532Z,21.33
2018-10-06T11:15:20.282Z,16.73
2018-10-06T11:17:25.994Z,22.70
2018-10-06T11:19:31.417Z,20.20
2018-10-06T11:21:37.255Z,17.40
2018-10-06T11:23:43.111Z,23.37
2018-10-06T11:25:48.833Z,17.07
2018-10-06T11:27:54.872Z,17.87
2018-10-06T11:30:00.886Z,16.73
2018-10-06T11:32:06.312Z,14.47
2018-10-06T11:34:12.194Z,15.60
2018-10-06T11:36:18.464Z,16.50
2018-10-06T11:38:24.366Z,16.17
2018-10-06T11:40:30.119Z,43.43
2018-10-06T11:42:35.765Z,25.07
2018-10-06T11:44:41.096Z,30.83
2018-10-06T11:46:46.874Z,32.63
2018-10-06T11:48:52.809Z,35.03
2018-10-06T11:50:58.799Z,32.30
2018-10-06T11:53:04.832Z,44.60
2018-10-06T11:55:10.636Z,31.50
2018-10-06T11:57:16.409Z,40.63
2018-10-06T11:59:22.140Z,38.53
2018-10-06T12:01:27.697Z,40.60
2018-10-06T12:03:33.018Z,45.90
2018-10-06T12:05:38.552Z,47.60
2018-10-06T12:07:44.153Z,41.33
2018-10-06T12:09:49.125Z,45.27
2018-10-06T12:11:54.573Z,34.23
2018-10-06T12:14:00.204Z,48.67
2018-10-06T12:16:06.044Z,34.90
2018-10-06T12:18:11.910Z,31.40
2018-10-06T12:20:17.702Z,32.83
2018-10-06T12:22:22.969Z,29.77
2018-10-06T12:24:28.416Z,34.40
2018-10-06T12:26:33.860Z,32.13
2018-10-06T12:28:39.266Z,28.53
2018-10-06T12:30:45.193Z,33.53
2018-10-06T12:32:50.790Z,26.17
2018-10-06T12:34:56.288Z,24.80
2018-10-06T12:37:01.836Z,28.60
2018-10-06T12:39:08.229Z,26.80
2018-10-06T12:41:13.882Z,23.70
2018-10-06T12:43:19.841Z,24.37
2018-10-06T12:45:25.529Z,26.77
2018-10-06T12:47:31.498Z,20.70
2018-10-06T12:49:37.431Z,25.33
2018-10-06T12:51:43.797Z,20.83
2018-10-06T12:53:49.366Z,21.60
2018-10-06T12:55:54.945Z,26.93
2018-10-06T12:58:01.085Z,27.27
2018-10-06T13:00:11.875Z,19.70
2018-10-06T13:02:17.920Z,22.00
2018-10-06T13:04:25.333Z,18.90
2018-10-06T13:06:31.230Z,18.60
2018-10-06T13:08:37.870Z,22.53
2018-10-06T13:10:43.869Z,23.23
2018-10-06T13:12:50.849Z,19.73
2018-10-06T13:14:57.008Z,23.20
2018-10-06T13:17:02.963Z,19.00
2018-10-06T13:19:08.895Z,22.23
2018-10-06T13:21:14.723Z,19.73
2018-10-06T13:23:19.873Z,19.70
2018-10-06T13:25:25.547Z,21.87
2018-10-06T13:27:31.642Z,18.77
2018-10-06T13:29:38.476Z,21.27
2018-10-06T13:31:44.242Z,18.50
2018-10-06T13:33:49.785Z,21.23
2018-10-06T13:35:55.519Z,18.03
2018-10-06T13:38:01.165Z,24.77
2018-10-06T13:40:06.832Z,18.23
2018-10-06T13:42:12.150Z,19.23
2018-10-06T13:44:17.916Z,15.83
2018-10-06T13:46:23.573Z,19.90
2018-10-06T13:48:29.769Z,18.97
2018-10-06T13:50:35.312Z,22.67
2018-10-06T13:52:40.769Z,17.77
2018-10-06T13:54:46.662Z,15.23
2018-10-06T13:56:53.339Z,14.70
2018-10-06T13:58:59.385Z,19.30
2018-10-06T14:01:05.241Z,18.90
2018-10-06T14:03:11.254Z,17.73
2018-10-06T14:05:17.569Z,15.67
2018-10-06T14:07:23.218Z,12.80
2018-10-06T14:09:29.146Z,20.57
2018-10-06T14:11:34.407Z,16.13
2018-10-06T14:13:40.031Z,16.70
2018-10-06T14:15:46.551Z,18.07
2018-10-06T14:17:52.134Z,13.77
2018-10-06T14:19:57.522Z,17.70
2018-10-06T14:22:03.511Z,16.93
2018-10-06T14:24:09.395Z,19.70
2018-10-06T14:26:15.071Z,18.00
2018-10-06T14:28:20.757Z,13.20
2018-10-06T14:30:26.268Z,17.23
2018-10-06T14:32:31.999Z,21.10
2018-10-06T14:34:37.702Z,16.23
2018-10-06T14:36:43.554Z,19.17
2018-10-06T14:38:49.349Z,14.90
2018-10-06T14:40:55.398Z,16.40
2018-10-06T14:43:00.993Z,16.20
2018-10-06T14:45:06.775Z,14.57
2018-10-06T14:47:12.540Z,15.40
2018-10-06T14:49:18.020Z,15.97
2018-10-06T14:51:23.303Z,18.87
2018-10-06T14:53:28.897Z,18.53
2018-10-06T14:55:34.653Z,15.40
2018-10-06T14:57:41.689Z,14.17
2018-10-06T14:59:47.710Z,14.23
2018-10-06T15:01:53.132Z,16.50
2018-10-06T15:03:59.015Z,14.60
2018-10-06T15:06:04.670Z,17.50
2018-10-06T15:08:10.202Z,15.43
2018-10-06T15:10:15.982Z,13.53
2018-10-06T15:12:21.647Z,13.23
2018-10-06T15:14:27.067Z,16.27
2018-10-06T15:16:32.987Z,12.87
2018-10-06T15:18:38.573Z,12.90
2018-10-06T15:20:44.094Z,15.57
2018-10-06T15:22:50.007Z,13.53
2018-10-06T15:24:55.356Z,15.17
2018-10-06T15:27:01.112Z,13.43
2018-10-06T15:29:07.358Z,11.23
2018-10-06T15:31:12.648Z,12.87
2018-10-06T15:33:19.094Z,15.63
2018-10-06T15:35:25.181Z,11.77
2018-10-06T15:37:31.232Z,13.33
2018-10-06T15:39:36.707Z,13.60
2018-10-06T15:41:42.525Z,12.57
2018-10-06T15:43:50.760Z,14.87
2018-10-06T15:46:00.196Z,12.67
2018-10-06T15:48:05.917Z,14.17
2018-10-06T15:50:11.677Z,12.10
2018-10-06T15:52:18.194Z,14.23
2018-10-06T15:54:23.521Z,14.70
2018-10-06T15:56:29.442Z,14.67
2018-10-06T15:58:35.229Z,14.57
2018-10-06T16:00:41.456Z,14.80
2018-10-06T16:02:47.100Z,12.50
2018-10-06T16:04:52.918Z,16.23
2018-10-06T16:06:58.504Z,15.00
2018-10-06T16:09:04.422Z,13.60
2018-10-06T16:11:09.966Z,12.20
2018-10-06T16:13:15.845Z,13.73
2018-10-06T16:15:21.360Z,12.90
2018-10-06T16:17:27.181Z,17.77
2018-10-06T16:19:33.019Z,19.93
2018-10-06T16:21:38.845Z,24.53
2018-10-06T16:23:44.496Z,27.70
2018-10-06T16:25:50.212Z,19.30
2018-10-06T16:27:56.183Z,120.00
2018-10-06T16:30:01.552Z,75.93
2018-10-06T16:32:07.674Z,45.13
2018-10-06T16:34:12.914Z,32.10
2018-10-06T16:36:18.362Z,40.47
2018-10-06T16:38:24.461Z,38.73
2018-10-06T16:40:29.593Z,35.63
2018-10-06T16:42:35.208Z,34.17
2018-10-06T16:44:40.891Z,36.40
2018-10-06T16:46:46.224Z,34.70
2018-10-06T16:48:52.172Z,29.87
2018-10-06T16:50:57.870Z,30.80
2018-10-06T16:53:03.582Z,29.57
2018-10-06T16:55:09.192Z,30.27
2018-10-06T16:57:14.523Z,30.80
2018-10-06T16:59:20.623Z,32.17
2018-10-06T17:01:26.521Z,31.63
2018-10-06T17:03:31.792Z,32.07
2018-10-06T17:05:37.693Z,30.37
2018-10-06T17:07:43.706Z,29.07
2018-10-06T17:09:49.894Z,29.77
2018-10-06T17:11:55.585Z,27.80
2018-10-06T17:14:01.148Z,26.70
2018-10-06T17:16:06.358Z,24.97
2018-10-06T17:18:12.064Z,25.73
2018-10-06T17:20:18.289Z,25.87
2018-10-06T17:22:24.210Z,22.47
2018-10-06T17:24:30.330Z,24.20
2018-10-06T17:26:36.428Z,20.37
2018-10-06T17:28:42.070Z,22.17
2018-10-06T17:30:47.992Z,22.07
2018-10-06T17:32:53.809Z,21.10
2018-10-06T17:34:59.358Z,20.33
2018-10-06T17:37:04.944Z,20.10
2018-10-06T17:39:10.889Z,20.13
2018-10-06T17:41:16.212Z,19.70
2018-10-06T17:43:23.465Z,21.07
2018-10-06T17:45:29.862Z,18.73
2018-10-06T17:47:34.887Z,23.33
2018-10-06T17:49:40.606Z,20.00
2018-10-06T17:51:48.254Z,20.33
2018-10-06T17:53:53.881Z,21.00
2018-10-06T17:55:58.991Z,19.73
2018-10-06T17:58:04.763Z,18.83
2018-10-06T18:00:10.488Z,20.87
2018-10-06T18:02:15.890Z,20.47
2018-10-06T18:04:21.654Z,22.20
2018-10-06T18:06:27.392Z,19.23
2018-10-06T18:08:33.037Z,20.10
2018-10-06T18:10:38.890Z,16.93
2018-10-06T18:12:44.697Z,16.00
2018-10-06T18:14:50.507Z,19.73
2018-10-06T18:16:56.256Z,17.67
2018-10-06T18:19:02.010Z,16.63
2018-10-06T18:21:06.994Z,16.97
2018-10-06T18:23:13.061Z,14.57
2018-10-06T18:25:18.996Z,10.13
2018-10-06T18:27:24.335Z,9.90
2018-10-06T18:29:29.930Z,8.37
2018-10-06T18:31:35.421Z,7.97
2018-10-06T18:33:41.096Z,9.53
2018-10-06T18:35:47.533Z,8.13
2018-10-06T18:37:53.311Z,7.57
2018-10-06T18:39:59.439Z,6.07
2018-10-06T18:42:04.834Z,7.07
2018-10-06T18:44:10.445Z,5.60
2018-10-06T18:46:16.096Z,6.00
2018-10-06T18:48:22.181Z,5.73
2018-10-06T18:50:27.780Z,5.77
2018-10-06T18:52:33.617Z,4.77
2018-10-06T18:54:39.292Z,5.93
2018-10-06T18:56:45.347Z,3.60
2018-10-06T18:58:51.221Z,4.20
2018-10-06T19:00:57.160Z,5.17
2018-10-06T19:03:02.966Z,7.13
2018-10-06T19:05:08.813Z,4.90
2018-10-06T19:07:14.559Z,5.67
2018-10-06T19:09:20.114Z,7.00
2018-10-06T19:11:25.759Z,6.33
2018-10-06T19:13:31.211Z,8.23
2018-10-06T19:15:37.276Z,6.60
2018-10-06T19:17:44.863Z,5.87
2018-10-06T19:19:50.873Z,6.63
2018-10-06T19:21:57.124Z,6.40
2018-10-06T19:24:02.842Z,7.53
2018-10-06T19:26:08.297Z,9.00
2018-10-06T19:28:13.929Z,6.57
2018-10-06T19:30:20.526Z,5.87
2018-10-06T19:32:26.486Z,6.80
2018-10-06T19:34:31.987Z,7.73
2018-10-06T19:36:38.173Z,6.23
2018-10-06T19:38:43.490Z,6.50
2018-10-06T19:40:49.269Z,5.97
2018-10-06T19:42:55.303Z,7.07
2018-10-06T19:45:00.956Z,7.20
2018-10-06T19:47:06.201Z,7.77
2018-10-06T19:49:12.726Z,7.00
2018-10-06T19:51:18.482Z,6.30
2018-10-06T19:53:24.081Z,6.87
2018-10-06T19:55:29.713Z,6.20
2018-10-06T19:57:35.249Z,7.60
2018-10-06T19:59:40.769Z,6.50
2018-10-06T20:01:46.602Z,7.33
2018-10-06T20:03:52.193Z,7.00
2018-10-06T20:05:57.645Z,7.00
2018-10-06T20:08:04.621Z,7.77
2018-10-06T20:10:10.595Z,8.93
2018-10-06T20:12:16.424Z,6.83
2018-10-06T20:14:21.501Z,7.50
2018-10-06T20:16:27.224Z,6.87
2018-10-06T20:18:32.908Z,8.33
2018-10-06T20:20:38.402Z,6.90
2018-10-06T20:22:44.636Z,7.23
2018-10-06T20:24:50.564Z,7.30
2018-10-06T20:26:56.076Z,7.37
2018-10-06T20:29:01.964Z,7.30
2018-10-06T20:31:08.529Z,6.70
2018-10-06T20:33:15.074Z,9.10
2018-10-06T20:35:20.287Z,9.07
2018-10-06T20:37:25.942Z,7.90
2018-10-06T20:39:31.728Z,7.80
2018-10-06T20:41:37.084Z,7.73
2018-10-06T20:43:43.283Z,8.17
2018-10-06T20:45:51.893Z,7.90
2018-10-06T20:47:58.857Z,7.30
2018-10-06T20:50:07.224Z,6.90
2018-10-06T20:52:13.138Z,7.50
2018-10-06T20:54:19.007Z,8.00
2018-10-06T20:56:24.684Z,7.30
2018-10-06T20:58:29.950Z,8.00
2018-10-06T21:00:35.635Z,7.50
2018-10-06T21:02:41.264Z,7.93
2018-10-06T21:04:47.412Z,7.00
2018-10-06T21:06:53.185Z,7.43
2018-10-06T21:08:58.949Z,7.37
2018-10-06T21:11:04.493Z,7.00
2018-10-06T21:13:09.845Z,7.40
2018-10-06T21:15:15.370Z,6.83
2018-10-06T21:17:21.334Z,7.27
2018-10-06T21:19:27.201Z,7.47
2018-10-06T21:21:32.799Z,8.77
2018-10-06T21:23:38.384Z,6.57
2018-10-06T21:25:43.933Z,7.80
2018-10-06T21:27:49.132Z,6.83
2018-10-06T21:29:54.853Z,7.63
2018-10-06T21:32:00.290Z,7.90
2018-10-06T21:34:06.547Z,7.70
2018-10-06T21:36:11.925Z,7.93
2018-10-06T21:38:17.527Z,7.30
2018-10-06T21:40:22.875Z,8.50
2018-10-06T21:42:28.550Z,6.93
2018-10-06T21:44:34.141Z,7.50
2018-10-06T21:46:39.532Z,7.17
2018-10-06T21:48:45.065Z,7.10
2018-10-06T21:50:50.976Z,6.43
2018-10-06T21:52:56.985Z,6.10
2018-10-06T21:55:02.927Z,6.70
2018-10-06T21:57:08.564Z,8.00
2018-10-06T21:59:14.252Z,8.60
2018-10-06T22:01:20.402Z,7.17
2018-10-06T22:03:25.789Z,7.10
2018-10-06T22:05:31.223Z,7.60
2018-10-06T22:07:36.919Z,7.07
2018-10-06T22:09:43.003Z,6.37
2018-10-06T22:11:48.657Z,7.03
2018-10-06T22:13:54.660Z,6.53
2018-10-06T22:16:00.317Z,6.93
2018-10-06T22:18:06.220Z,7.37
2018-10-06T22:20:12.394Z,6.63
2018-10-06T22:22:18.313Z,6.40
2018-10-06T22:24:24.516Z,7.07
2018-10-06T22:26:31.994Z,7.10
2018-10-06T22:28:38.246Z,6.53
2018-10-06T22:30:43.694Z,7.03
2018-10-06T22:32:49.590Z,6.87
2018-10-06T22:34:55.945Z,6.63
2018-10-06T22:37:00.928Z,6.20
2018-10-06T22:39:08.288Z,8.70
2018-10-06T22:41:14.782Z,11.73
2018-10-06T22:43:20.878Z,9.43
2018-10-06T22:45:26.647Z,8.27
2018-10-06T22:47:33.948Z,13.53
2018-10-06T22:49:39.985Z,15.10
2018-10-06T22:51:45.629Z,10.47
2018-10-06T22:53:51.275Z,9.47
2018-10-06T22:55:57.373Z,12.37
2018-10-06T22:58:03.312Z,13.73
2018-10-06T23:00:09.194Z,12.00
2018-10-06T23:02:15.346Z,9.20
2018-10-06T23:04:21.792Z,12.20
2018-10-06T23:06:27.748Z,7.70
2018-10-06T23:08:33.201Z,9.87
2018-10-06T23:10:38.812Z,8.33
2018-10-06T23:12:44.398Z,7.70
2018-10-06T23:14:50.686Z,9.20
2018-10-06T23:16:56.724Z,9.30
2018-10-06T23:19:03.003Z,10.67
2018-10-06T23:21:09.110Z,8.50
2018-10-06T23:23:15.507Z,7.90
2018-10-06T23:25:21.529Z,13.03
2018-10-06T23:27:27.780Z,12.10
2018-10-06T23:29:35.562Z,9.40
2018-10-06T23:31:41.637Z,12.20
2018-10-06T23:33:49.469Z,13.90
2018-10-06T23:35:58.542Z,9.70
2018-10-06T23:38:04.607Z,12.07
2018-10-06T23:40:11.192Z,11.03
2018-10-06T23:42:19.295Z,10.43
2018-10-06T23:44:25.464Z,11.87
2018-10-06T23:46:33.397Z,9.13
2018-10-06T23:48:39.802Z,28.73
2018-10-06T23:50:46.232Z,19.40
2018-10-06T23:52:51.765Z,10.57
2018-10-06T23:54:57.695Z,11.03
2018-10-06T23:57:03.242Z,10.97
2018-10-06T23:59:09.172Z,15.80
